Rockford, Washington
Current Conditions -  °F | °C
As of 2:02 AM on Monday 26 Jan 2015 (Local Time) from KSFF Reporting Station
Haze Haze  
Wind Chill:   Ceiling: 200
Heat Index:   Visibility: 3mi
Dew Point:   Wind: 3mph
Humidity: 96%   Direction: 30°NNE
Pressure: 30.16"   Gusts: NA
Location:  47.45°N, 117.13°W
Report Text: KSFF 261002Z AUTO 03003KT 3SM BR OVC002 03/02 A3016 RMK AO2 T00280022
Loading
Personal Weather Stations






























Interactive Weather Map New forecast layout! Learn more

10-Day Weather Forecast

Advertisements
Track Severe Weather on mobile